Tiempo atmosférico en la estación meteorológica de Lorca, Murcia (320 m.)



Fecha
DESCASC
Temp. máxima en grados centígrados (hora)
DESCASC
Temp. mínima en grados centígrados (hora)
DESCASC
Temp. media en grados centígrados
DESCASC
Racha de viento máxima en m/sg (hora)
DESCASC
Velocidad máxima media en intervalos de 10 minutos(hora)
DESCASC
Precipitaciones diarias en mm
DESCASC
Precipitaciones de 00:00 a 06:00 en mm
DESCASC
Precipitaciones de 06:00 a 12:00 en mm
DESCASC
Precipitaciones de 12:00 a 18:00 en mm
DESCASC
Precipitaciones de 18:00 a 24:00 en mm
DESCASC
26-03-2020 19.7 (12:40) 4.8 (07:10) 12.3 8.06 (12:20) 3.89 (19:50) 0.6 0.4 0 0 0.2
25-03-2020 15.3 (14:50) 6.5 (08:00) 10.9 6.11 (16:50) 2.78 (16:40) 0.3 0 0 0.3 0
24-03-2020 10.9 (00:10) 9 (23:30) 9.9 12.5 (01:30) 6.11 (07:00) 15 0.7 7.9 3.6 2.8
23-03-2020 -- (--) -- (--) -- -- (--) -- (--) -- -- -- 6.3 3
22-03-2020 -- (--) -- (--) -- -- (--) -- (--) -- -- -- -- --
21-03-2020 -- (--) -- (--) -- -- (--) -- (--) 9.5 0 0 9.5 0
20-03-2020 15.3 (16:10) 8.4 (00:00) 11.8 7.5 (15:10) 4.17 (16:30) 0 0 0 0 0
19-03-2020 15.6 (17:10) 10.7 (00:00) 13.2 7.22 (10:20) 3.89 (16:20) 0 0 0 0 0
18-03-2020 19.3 (15:00) 11.9 (00:00) 15.6 8.89 (11:40) 5 (11:50) 0 0 0 0 0
17-03-2020 15.1 (12:50) 5.7 (00:00) 10.4 6.11 (22:20) 3.33 (22:20) 1.4 0 0 0 1.4
16-03-2020 15.7 (11:10) 5.6 (00:00) 10.6 6.67 (12:30) 2.78 (12:30) 0.4 0 0.2 0.2 0
15-03-2020 20.8 (14:30) 9.7 (00:00) 15.2 6.11 (16:10) 3.06 (16:00) 0.2 0 0 0 0.2
14-03-2020 22.2 (15:00) 9.3 (00:00) 15.8 5.28 (15:50) 2.5 (15:40) 0 0 0 0 0
13-03-2020 23.5 (12:50) 10.4 (07:30) 16.9 7.22 (13:30) 3.61 (19:20) 0 0 0 0 0
12-03-2020 27.8 (15:20) 8.7 (00:00) 18.2 4.44 (13:00) 2.22 (17:10) 0 0 0 0 0
11-03-2020 29.4 (14:30) 8.6 (00:00) 19 5.83 (15:30) 2.78 (17:00) 0 0 0 0 0
10-03-2020 23.8 (13:50) 10.6 (00:00) 17.2 7.78 (15:50) 3.61 (14:20) 0 0 0 0 0
09-03-2020 23.5 (15:00) 10.2 (00:00) 16.8 6.67 (04:40) 4.44 (04:40) 0 0 0 0 0
08-03-2020 22.1 (14:20) 6.9 (00:00) 14.5 6.39 (14:50) 3.06 (15:50) 0 0 0 0 0
07-03-2020 20.3 (14:50) 6.7 (00:00) 13.5 10.28 (10:20) 3.89 (10:20) 0 0 0 0 0
06-03-2020 19 (13:40) 8.6 (00:00) 13.8 12.78 (14:30) 6.11 (14:30) 0 0 0 0 0
05-03-2020 24.9 (13:40) 6.5 (00:00) 15.7 13.06 (16:50) 5 (15:30) 0 0 0 0 0
04-03-2020 25.3 (14:50) 10.5 (00:00) 17.9 5.28 (00:40) 2.78 (00:40) 0 0 0 0 0
03-03-2020 24.3 (14:50) 5.5 (00:00) 14.9 12.78 (15:10) 6.67 (18:20) 0 0 0 0 0
02-03-2020 22.8 (15:40) 13.4 (00:00) 18.1 17.22 (12:10) 7.78 (11:10) 1.4 0 1.2 0.2 0
01-03-2020 21.6 (17:00) 13 (00:00) 17.3 7.5 (06:30) 4.17 (04:40) 0 0 0 0 0
29-02-2020 25.8 (16:00) 5.2 (00:00) 15.5 9.72 (23:10) 4.44 (22:20) 0 0 0 0 0
28-02-2020 23 (14:00) 6.8 (00:00) 14.9 5.56 (02:50) 3.06 (14:40) 0 0 0 0 0

Gráficas

Temp. máximas Temp. mínimas Temp. medias Precipitaciones Rachas de viento máximas Velocidades máximas media en intervalos de 10 minutos

Datos horarios

Fecha y hora oficial Temperatura (ºC) Velocidad del viento (km/h) Dirección del viento Racha (km/h) Dirección de racha Precipitación (mm) Presión (hPa) Tendencia (hPa) Humedad (%)
2020-03-28 23:00:00 7.7 2 Noroeste 5 Sudoeste 0 -- -- 86
2020-03-28 22:00:00 8.8 3 Sudoeste 8 Oeste 0 -- -- 84
2020-03-28 21:00:00 9.4 3 Sudoeste 12 Sudoeste 0 -- -- 82
2020-03-28 20:00:00 10.6 6 Sudoeste 16 Sudoeste 0 -- -- 74
2020-03-28 19:00:00 13 0 Calma 9 Este 0 -- -- 54
2020-03-28 18:00:00 15.3 3 Este 13 Nordeste 0 -- -- 51
2020-03-28 17:00:00 14.8 5 Nordeste 12 Nordeste 0 -- -- 52
2020-03-28 16:00:00 14 4 Nordeste 12 Nordeste 0 -- -- 52
2020-03-28 15:00:00 14.4 0 Calma 9 Sur 0 -- -- 54
2020-03-28 14:00:00 13.6 0 Calma 8 Nordeste 0 -- -- 57
2020-03-28 13:00:00 12.3 0 Calma 14 Nordeste 0 -- -- 62
2020-03-28 12:00:00 12.3 0 Calma 14 Noroeste 0 -- -- 58
2020-03-28 11:00:00 9.8 8 Noroeste 16 Noroeste 0 -- -- 63
2020-03-28 10:00:00 7.7 9 Noroeste 22 Noroeste 0 -- -- 76
2020-03-28 09:00:00 6.9 11 Noroeste 24 Noroeste 0.6 -- -- 83
2020-03-28 08:00:00 5.9 9 Noroeste 21 Noroeste 0 -- -- 84
2020-03-28 07:00:00 6.3 9 Noroeste 19 Noroeste 0.2 -- -- 85
2020-03-28 06:00:00 6.4 6 Noroeste 17 Noroeste 1.4 -- -- 90
2020-03-28 05:00:00 6.7 5 Noroeste 12 Norte 1.7 -- -- 91
2020-03-28 04:00:00 7.3 4 Norte 16 Noroeste 1.8 -- -- 91
2020-03-28 03:00:00 7.6 4 Nordeste 10 Nordeste 0.6 -- -- 92
2020-03-28 02:00:00 7.5 2 Nordeste 9 Nordeste 0 -- -- 93
2020-03-28 01:00:00 7.4 2 Nordeste 9 Nordeste 0 -- -- 94
2020-03-28 00:00:00 7.5 0 Calma 4 Sudeste 0.4 -- -- 94
2020-03-27 23:00:00 7.5 0 Calma 4 Nordeste 2.1 -- -- 93
2020-03-27 22:00:00 7.6 2 Nordeste 8 Nordeste 1 -- -- 93
2020-03-27 21:00:00 7.8 4 Nordeste 12 Nordeste 0.7 -- -- 93
2020-03-27 20:00:00 7.8 8 Nordeste 15 Nordeste 0.2 -- -- 92
2020-03-27 19:00:00 7.9 4 Nordeste 13 Nordeste 0.2 -- -- 92
2020-03-27 18:00:00 8 4 Nordeste 17 Nordeste 0.5 -- -- 91
2020-03-27 17:00:00 8.2 3 Este 18 Nordeste 0.2 -- -- 89
2020-03-27 16:00:00 8.7 8 Nordeste 26 Nordeste 0 -- -- 83
2020-03-27 15:00:00 9.7 6 Nordeste 20 Nordeste 0 -- -- 78
2020-03-27 14:00:00 9.4 4 Nordeste 19 Nordeste 0 -- -- 79
2020-03-27 13:00:00 10 6 Nordeste 16 Nordeste 0 -- -- 75
2020-03-27 12:00:00 9.9 9 Nordeste 18 Nordeste 0 -- -- 78
2020-03-27 11:00:00 9.6 6 Nordeste 16 Nordeste 0 -- -- 77
2020-03-27 10:00:00 9 3 Nordeste 11 Nordeste 0 -- -- 80
2020-03-27 09:00:00 8.5 4 Nordeste 10 Nordeste 0 -- -- 82
2020-03-27 08:00:00 8.4 2 Nordeste 6 Nordeste 0 -- -- 81
2020-03-27 07:00:00 8.3 0 Calma 4 Este 0 -- -- 84
2020-03-27 06:00:00 8.5 0 Calma 6 Nordeste 0 -- -- 84
2020-03-27 05:00:00 8.6 0 Calma 10 Sudeste 0 -- -- 83
2020-03-27 04:00:00 8.7 0 Calma 8 Sudeste 0 -- -- 83
2020-03-27 03:00:00 9.1 0 Calma 13 Este 0 -- -- 82
2020-03-27 02:00:00 9.4 3 Este 13 Nordeste 0 -- -- 81
2020-03-27 01:00:00 9.5 3 Este 17 Nordeste 0 -- -- 80
2020-03-27 00:00:00 9.5 8 Nordeste 17 Nordeste 0 -- -- 78
2020-03-26 23:00:00 9.9 6 Nordeste 21 Nordeste 0 -- -- 78
2020-03-26 22:00:00 10.6 6 Nordeste 27 Nordeste 0 -- -- 81
2020-03-26 21:00:00 11.2 12 Nordeste 28 Nordeste 0 -- -- 88
2020-03-26 20:00:00 12.4 13 Nordeste 23 Nordeste 0.2 -- -- 77
2020-03-26 19:00:00 14.3 3 Nordeste 8 Este 0 -- -- 52
2020-03-26 18:00:00 15.7 2 Este 12 Nordeste 0 -- -- 51
2020-03-26 17:00:00 17.8 5 Este 17 Nordeste 0 -- -- 46
2020-03-26 16:00:00 17.4 4 Este 21 Nordeste 0 -- -- 54
2020-03-26 15:00:00 17.4 6 Nordeste 21 Nordeste 0 -- -- 55
2020-03-26 14:00:00 17.3 12 Nordeste 23 Nordeste 0 -- -- 57
2020-03-26 13:00:00 19.1 7 Nordeste 29 Noroeste 0 -- -- 46
2020-03-26 12:00:00 18.3 9 Noroeste 25 Noroeste 0 -- -- 41
2020-03-26 11:00:00 15.1 5 Sur 11 Sudeste 0 -- -- 61
2020-03-26 10:00:00 11.9 0 Calma 6 Norte 0 -- -- 73
2020-03-26 09:00:00 7.7 0 Calma 4 Norte 0 -- -- 90
2020-03-26 08:00:00 5.8 0 Calma 4 Noroeste 0 -- -- 94
2020-03-26 07:00:00 5 0 Calma 6 Noroeste 0 -- -- 92
2020-03-26 06:00:00 5.5 3 Sudoeste 8 Sur 0 -- -- 92
2020-03-26 05:00:00 5.8 3 Norte 6 Norte 0 -- -- 92
2020-03-26 04:00:00 6.9 2 Sur 13 Sur 0.2 -- -- 91
2020-03-26 03:00:00 7.5 0 Calma 16 Noroeste 0.2 -- -- 88
2020-03-26 02:00:00 6.7 2 Norte 6 Norte 0 -- -- 91
2020-03-26 01:00:00 6.5 2 Sudeste 5 Sudeste 0 -- -- 89
2020-03-26 00:00:00 7.4 0 Calma 7 Sudoeste 0 -- -- 85
2020-03-25 23:00:00 8.4 0 Calma 8 Sudoeste 0 -- -- 83
2020-03-25 22:00:00 9.1 2 Sudoeste 10 Sudoeste 0 -- -- 82
2020-03-25 21:00:00 9.8 4 Sur 12 Sur 0 -- -- 82
2020-03-25 20:00:00 9.8 5 Sudoeste 13 Sudoeste 0 -- -- 79
2020-03-25 19:00:00 10 6 Sudoeste 20 Sur 0 -- -- 78
2020-03-25 18:00:00 10.6 8 Sur 19 Sudoeste 0 -- -- 77
2020-03-25 17:00:00 11.1 9 Sur 22 Sur 0.3 -- -- 73
2020-03-25 16:00:00 13.7 10 Sur 17 Sur 0 -- -- 56
2020-03-25 15:00:00 14.6 5 Nordeste 14 Nordeste 0 -- -- 49
2020-03-25 14:00:00 14.5 2 Este 11 Nordeste 0 -- -- 54
2020-03-25 13:00:00 14 2 Este 13 Nordeste 0 -- -- 58
2020-03-25 12:00:00 13.7 0 Calma 11 Sudeste 0 -- -- 54
2020-03-25 11:00:00 12.4 6 Nordeste 14 Noroeste 0 -- -- 59
2020-03-25 10:00:00 10.9 6 Noroeste 13 Noroeste 0 -- -- 66
2020-03-25 09:00:00 9 4 Norte 19 Noroeste 0 -- -- 73
2020-03-25 08:00:00 6.5 2 Nordeste 10 Noroeste 0 -- -- 83
2020-03-25 07:00:00 7.1 6 Noroeste 13 Noroeste 0 -- -- 79
2020-03-25 06:00:00 7.9 5 Norte 9 Noroeste 0 -- -- 77
2020-03-25 05:00:00 8.4 2 Norte 9 Noroeste 0 -- -- 77
2020-03-25 04:00:00 8.4 0 Calma 5 Nordeste 0 -- -- 85
2020-03-25 03:00:00 9 4 Norte 12 Noroeste 0 -- -- 77
2020-03-25 02:00:00 9 0 Calma 15 Nordeste 0 -- -- 78
2020-03-25 01:00:00 9.5 7 Nordeste 14 Nordeste 0 -- -- 73
2020-03-25 00:00:00 9.1 3 Nordeste 22 Nordeste 0 -- -- 84
2020-03-24 23:00:00 9.4 12 Nordeste 23 Nordeste 0.6 -- -- 86
2020-03-24 22:00:00 9.5 3 Norte 11 Nordeste 0.7 -- -- 94
2020-03-24 21:00:00 10 6 Nordeste 14 Nordeste 0.5 -- -- 93
2020-03-24 20:00:00 10.2 5 Nordeste 11 Nordeste 0.4 -- -- 94
2020-03-24 19:00:00 10.3 4 Nordeste 21 Nordeste 0.6 -- -- 92
2020-03-24 18:00:00 10.5 11 Nordeste 24 Nordeste 1.4 -- -- 92
2020-03-24 17:00:00 10.6 11 Nordeste 31 Nordeste 0.3 -- -- 91
2020-03-24 16:00:00 10.7 12 Nordeste 40 Nordeste 0.9 -- -- 91
2020-03-24 15:00:00 10.8 16 Nordeste 37 Nordeste 0.4 -- -- 92
2020-03-24 14:00:00 10.7 18 Nordeste 40 Nordeste 0.2 -- -- 91
2020-03-24 13:00:00 10.7 17 Nordeste 41 Nordeste 0.4 -- -- 91
2020-03-24 12:00:00 10.5 13 Nordeste 27 Nordeste 0.8 -- -- 85
2020-03-24 11:00:00 9.8 0 Calma 5 Oeste 0.5 -- -- 92
2020-03-24 10:00:00 9.6 0 Calma 21 Nordeste 1.9 -- -- 90
2020-03-24 09:00:00 9.6 13 Nordeste 30 Nordeste 4.3 -- -- 89
2020-03-24 08:00:00 9.5 16 Nordeste 36 Nordeste 0.4 -- -- 89
2020-03-24 07:00:00 10.1 22 Nordeste 41 Nordeste 0 -- -- 86
2020-03-24 06:00:00 10.2 12 Nordeste 44 Nordeste 0 -- -- 86
2020-03-24 05:00:00 10.2 18 Nordeste 37 Nordeste 0.6 -- -- 84
2020-03-24 04:00:00 10.4 7 Nordeste 42 Nordeste 0 -- -- 76
2020-03-24 03:00:00 10.2 20 Nordeste 44 Nordeste 0 -- -- 84
2020-03-24 02:00:00 10.1 9 Este 45 Nordeste 0 -- -- 89
2020-03-24 01:00:00 10.1 13 Nordeste 35 Nordeste 0.1 -- -- 88
2020-03-24 00:00:00 10.8 9 Nordeste 31 Nordeste 0.1 -- -- 92
2020-03-23 23:00:00 11 11 Nordeste 34 Nordeste 0.1 -- -- 89
2020-03-23 22:00:00 11 12 Nordeste 26 Nordeste 0.2 -- -- 92
2020-03-23 21:00:00 11 10 Nordeste 24 Este 1.5 -- -- 89
2020-03-23 20:00:00 11.2 6 Nordeste 18 Nordeste 0 -- -- 89
2020-03-23 19:00:00 10.6 6 Nordeste 23 Nordeste 1.1 -- -- 90
2020-03-23 18:00:00 10.7 9 Nordeste 26 Nordeste 2.3 -- -- 92
2020-03-23 17:00:00 11.3 4 Este 18 Este 3.3 -- -- 91
2020-03-23 16:00:00 12.1 2 Este 18 Nordeste 0.7 -- -- 88
2020-03-23 15:00:00 12.8 6 Este 22 Nordeste 0 -- -- 77
2020-03-23 14:00:00 12.9 6 Nordeste 17 Nordeste 0 -- -- 80
2020-03-23 13:00:00 12.9 6 Nordeste 12 Norte 0 -- -- 76
2020-03-23 12:00:00 12.1 4 Nordeste 9 Norte 0 -- -- 73
2020-03-23 11:00:00 10.7 3 Norte 12 Norte 0 -- -- 80
2020-03-23 10:00:00 9.3 6 Nordeste 11 Este 0 -- -- 86
2020-03-23 09:00:00 6.8 0 Calma -- -- -- -- -- 95
2020-03-23 08:00:00 -- -- -- -- -- -- -- -- --
2020-03-23 07:00:00 -- -- -- -- -- -- -- -- --
2020-03-23 06:00:00 -- -- -- -- -- -- -- -- --
2020-03-23 05:00:00 -- -- -- -- -- -- -- -- --
2020-03-23 04:00:00 -- -- -- -- -- -- -- -- --
2020-03-23 03:00:00 -- -- -- -- -- -- -- -- --
2020-03-23 02:00:00 -- -- -- -- -- -- -- -- --
2020-03-23 01:00:00 -- -- -- -- -- -- -- -- --
2020-03-23 00:00:00 -- -- -- -- -- -- -- -- --
2020-03-22 23:00:00 -- -- -- -- -- -- -- -- --
2020-03-22 22:00:00 -- -- -- -- -- -- -- -- --
2020-03-22 21:00:00 -- -- -- -- -- -- -- -- --
2020-03-22 20:00:00 -- -- -- -- -- -- -- -- --
2020-03-22 19:00:00 -- -- -- -- -- -- -- -- --
2020-03-22 18:00:00 -- -- -- -- -- -- -- -- --
2020-03-22 17:00:00 -- -- -- -- -- -- -- -- --
2020-03-22 16:00:00 -- -- -- -- -- -- -- -- --
2020-03-22 15:00:00 -- -- -- -- -- -- -- -- --
2020-03-22 14:00:00 -- -- -- -- -- -- -- -- --
2020-03-22 13:00:00 -- -- -- -- -- -- -- -- --
2020-03-22 12:00:00 -- -- -- -- -- -- -- -- --
2020-03-22 11:00:00 -- -- -- -- -- -- -- -- --
2020-03-22 10:00:00 -- -- -- -- -- -- -- -- --
2020-03-22 09:00:00 -- -- -- -- -- -- -- -- --
2020-03-22 08:00:00 -- -- -- -- -- -- -- -- --
2020-03-22 07:00:00 -- -- -- -- -- -- -- -- --
2020-03-22 06:00:00 -- -- -- -- -- -- -- -- --
2020-03-22 05:00:00 -- -- -- -- -- -- -- -- --
2020-03-22 04:00:00 -- -- -- -- -- -- -- -- --
2020-03-22 03:00:00 -- -- -- -- -- -- -- -- --
2020-03-22 02:00:00 -- -- -- -- -- -- -- -- --
2020-03-22 01:00:00 -- -- -- -- -- -- -- -- --
2020-03-22 00:00:00 -- -- -- -- -- -- -- -- --
2020-03-21 23:00:00 -- -- -- -- -- -- -- -- --
2020-03-21 22:00:00 -- -- -- -- -- -- -- -- --
2020-03-21 21:00:00 -- -- -- -- -- -- -- -- --
2020-03-21 20:00:00 -- -- -- -- -- -- -- -- --
2020-03-21 19:00:00 -- -- -- -- -- -- -- -- --
2020-03-21 18:00:00 -- -- -- -- -- -- -- -- --
2020-03-21 17:00:00 -- -- -- -- -- -- -- -- --
2020-03-21 16:00:00 -- -- -- -- -- -- -- -- --
2020-03-21 15:00:00 9.4 6 Noroeste 21 Nordeste 1.8 -- -- 89
2020-03-21 14:00:00 9.3 8 Noroeste 22 Noroeste 4.2 -- -- 91
2020-03-21 13:00:00 9.3 4 Oeste 24 Noroeste 3.3 -- -- 87
2020-03-21 12:00:00 12.7 4 Nordeste 12 Nordeste 0 -- -- 76
2020-03-21 11:00:00 12.7 2 Este 12 Este 0 -- -- 75
2020-03-21 10:00:00 11.9 5 Nordeste 12 Nordeste 0 -- -- 78
2020-03-21 09:00:00 11.8 0 Calma 6 Nordeste 0 -- -- 78
2020-03-21 08:00:00 10.8 2 Norte 11 Norte 0 -- -- 83
2020-03-21 07:00:00 10.4 2 Sudoeste 8 Norte 0 -- -- 87
2020-03-21 06:00:00 10.7 5 Norte 12 Norte 0 -- -- 85
2020-03-21 05:00:00 10.4 0 Calma 3 Norte 0 -- -- 89
2020-03-21 04:00:00 10.2 0 Calma -- -- 0 -- -- 89
2020-03-21 03:00:00 10 0 Calma 2 Nordeste 0 -- -- 87
2020-03-21 02:00:00 11.1 0 Calma 7 Nordeste 0 -- -- 86
2020-03-21 01:00:00 11.5 4 Nordeste 10 Nordeste 0 -- -- 86
2020-03-21 00:00:00 11.6 4 Nordeste 14 Nordeste 0 -- -- 86
2020-03-20 23:00:00 11.7 3 Nordeste 11 Este 0 -- -- 87
2020-03-20 22:00:00 11.8 3 Nordeste 14 Nordeste 0 -- -- 84
2020-03-20 21:00:00 12.2 3 Este 13 Este 0 -- -- 76
2020-03-20 20:00:00 12.6 3 Este 12 Sudeste 0 -- -- 71
2020-03-20 19:00:00 13 3 Este 17 Nordeste 0 -- -- 65
2020-03-20 18:00:00 14 4 Este 23 Nordeste 0 -- -- 59
2020-03-20 17:00:00 14 13 Nordeste 27 Nordeste 0 -- -- 56
2020-03-20 16:00:00 15.2 9 Nordeste 27 Nordeste 0 -- -- 55
2020-03-20 15:00:00 13.8 13 Nordeste 26 Nordeste 0 -- -- 62
2020-03-20 14:00:00 12.8 11 Nordeste 22 Nordeste 0 -- -- 66
2020-03-20 13:00:00 11.8 10 Nordeste 19 Nordeste 0 -- -- 72
2020-03-20 12:00:00 11.8 8 Nordeste 18 Nordeste 0 -- -- 71
2020-03-20 11:00:00 12 11 Nordeste 21 Nordeste 0 -- -- 71
2020-03-20 10:00:00 11.5 4 Nordeste 14 Noroeste 0 -- -- 71
2020-03-20 09:00:00 11.1 3 Norte 10 Norte 0 -- -- 72
2020-03-20 08:00:00 9.8 4 Norte 12 Noroeste 0 -- -- 76
2020-03-20 07:00:00 8.8 4 Norte 12 Nordeste 0 -- -- 78
2020-03-20 06:00:00 9 5 Norte 14 Noroeste 0 -- -- 77
2020-03-20 05:00:00 9.5 5 Norte 12 Nordeste 0 -- -- 77
2020-03-20 04:00:00 9.4 5 Norte 10 Norte 0 -- -- 78
2020-03-20 03:00:00 9.4 4 Norte 12 Nordeste 0 -- -- 77
2020-03-20 02:00:00 10.5 6 Nordeste 15 Nordeste 0 -- -- 77
2020-03-20 01:00:00 10.6 7 Nordeste 14 Nordeste 0 -- -- 80
2020-03-20 00:00:00 10.7 5 Nordeste 13 Nordeste 0 -- -- 78
2020-03-19 23:00:00 11.1 7 Nordeste 13 Nordeste 0 -- -- 76
2020-03-19 22:00:00 10.9 3 Nordeste 7 Norte 0 -- -- 75
2020-03-19 21:00:00 11.3 2 Nordeste 14 Nordeste 0 -- -- 71
2020-03-19 20:00:00 12.1 8 Nordeste 15 Este 0 -- -- 67
2020-03-19 19:00:00 13.6 4 Este 18 Nordeste 0 -- -- 64
2020-03-19 18:00:00 14.9 4 Este 16 Nordeste 0 -- -- 59
2020-03-19 17:00:00 15.4 5 Este 25 Nordeste 0 -- -- 57
2020-03-19 16:00:00 15.1 10 Nordeste 23 Nordeste 0 -- -- 58
2020-03-19 15:00:00 14.6 10 Nordeste 23 Nordeste 0 -- -- 60
2020-03-19 14:00:00 14.4 12 Nordeste 22 Nordeste 0 -- -- 62
2020-03-19 13:00:00 13.9 10 Nordeste 24 Nordeste 0 -- -- 64
2020-03-19 12:00:00 13.7 11 Nordeste 22 Nordeste 0 -- -- 64
2020-03-19 11:00:00 13.5 10 Nordeste 26 Nordeste 0 -- -- 65
2020-03-19 10:00:00 13.3 9 Nordeste 23 Nordeste 0 -- -- 65
2020-03-19 09:00:00 12.7 8 Nordeste 18 Nordeste 0 -- -- 67
2020-03-19 08:00:00 12.2 7 Nordeste 16 Nordeste 0 -- -- 68
2020-03-19 07:00:00 12 7 Nordeste 14 Nordeste 0 -- -- 68
2020-03-19 06:00:00 12.2 7 Nordeste 12 Nordeste 0 -- -- 69
2020-03-19 05:00:00 12.1 6 Nordeste 13 Norte 0 -- -- 68
2020-03-19 04:00:00 12 5 Nordeste 12 Nordeste 0 -- -- 70
2020-03-19 03:00:00 12.3 6 Nordeste 14 Nordeste 0 -- -- 68
2020-03-19 02:00:00 12.7 7 Nordeste 14 Nordeste 0 -- -- 67
2020-03-19 01:00:00 12.9 6 Nordeste 16 Nordeste 0 -- -- 67
2020-03-19 00:00:00 13 9 Nordeste 26 Nordeste 0 -- -- 68
2020-03-18 23:00:00 13 9 Nordeste 19 Nordeste 0 -- -- 69
2020-03-18 22:00:00 13.2 9 Nordeste 20 Nordeste 0 -- -- 68
2020-03-18 21:00:00 13.4 12 Nordeste 22 Nordeste 0 -- -- 69
2020-03-18 20:00:00 13.5 6 Nordeste 17 Nordeste 0 -- -- 70
2020-03-18 19:00:00 14.9 3 Este 18 Este 0 -- -- 62
2020-03-18 18:00:00 15.9 5 Este 21 Este 0 -- -- 56
2020-03-18 17:00:00 17.9 6 Este 23 Nordeste 0 -- -- 49
2020-03-18 16:00:00 18.5 6 Este 24 Este 0 -- -- 48
2020-03-18 15:00:00 18.9 7 Este 24 Nordeste 0 -- -- 46
2020-03-18 14:00:00 17.6 5 Este 28 Nordeste 0 -- -- 53
2020-03-18 13:00:00 16.9 10 Nordeste 31 Nordeste 0 -- -- 56
2020-03-18 12:00:00 15.2 14 Nordeste 32 Nordeste 0 -- -- 59
2020-03-18 11:00:00 14.9 9 Nordeste 27 Nordeste 0 -- -- 64
2020-03-18 10:00:00 13.4 10 Nordeste 22 Nordeste 0 -- -- 66
2020-03-18 09:00:00 12.9 10 Nordeste 23 Nordeste 0 -- -- 68
2020-03-18 08:00:00 12.7 9 Nordeste 23 Nordeste 0 -- -- 68
2020-03-18 07:00:00 12.8 12 Nordeste 27 Nordeste 0 -- -- 67
2020-03-18 06:00:00 12.7 11 Nordeste 20 Nordeste 0 -- -- 70
2020-03-18 05:00:00 12 12 Nordeste 21 Nordeste 0 -- -- 77
2020-03-18 04:00:00 12.4 7 Nordeste 26 Nordeste 0 -- -- 74
2020-03-18 03:00:00 12.4 12 Nordeste 31 Nordeste 0 -- -- 77
2020-03-18 02:00:00 12.4 7 Nordeste 32 Nordeste 0 -- -- 79
2020-03-18 01:00:00 12.5 13 Nordeste 28 Nordeste 0 -- -- 80
2020-03-18 00:00:00 12.6 7 Nordeste 17 Nordeste 0 -- -- 83
2020-03-17 23:00:00 12.8 8 Nordeste 22 Nordeste 0 -- -- 90
2020-03-17 22:00:00 13.1 8 Nordeste 18 Nordeste 0 -- -- 89
2020-03-17 21:00:00 12.9 6 Nordeste 14 Nordeste 0 -- -- 88
2020-03-17 20:00:00 12.2 6 Norte 10 Nordeste 1 -- -- 91
2020-03-17 19:00:00 13.5 0 Calma 13 Nordeste 0.4 -- -- 77
2020-03-17 18:00:00 14.2 5 Nordeste 9 Nordeste 0 -- -- 72
2020-03-17 17:00:00 14.2 0 Calma 11 Nordeste 0 -- -- 72
2020-03-17 16:00:00 14.7 3 Nordeste 13 Nordeste 0 -- -- 62
2020-03-17 15:00:00 14.3 4 Nordeste 15 Nordeste 0 -- -- 61
2020-03-17 14:00:00 14.5 4 Este 14 Este 0 -- -- 62
2020-03-17 13:00:00 14.7 4 Nordeste 17 Nordeste 0 -- -- 62
2020-03-17 12:00:00 13 9 Nordeste 22 Nordeste 0 -- -- 67
2020-03-17 11:00:00 11.9 9 Nordeste 20 Nordeste 0 -- -- 72
2020-03-17 10:00:00 10.8 9 Nordeste 17 Nordeste 0 -- -- 75
2020-03-17 09:00:00 9.2 6 Nordeste 9 Nordeste 0 -- -- 73
2020-03-17 08:00:00 7.1 3 Nordeste 8 Nordeste 0 -- -- 78
2020-03-17 07:00:00 7.4 4 Nordeste 8 Nordeste 0 -- -- 73
2020-03-17 06:00:00 6.7 3 Nordeste 6 Nordeste 0 -- -- 78
2020-03-17 05:00:00 5.7 0 Calma 4 Nordeste 0 -- -- 77
2020-03-17 04:00:00 6.2 0 Calma 7 Oeste 0 -- -- 75
2020-03-17 03:00:00 6.2 0 Calma 14 Nordeste 0 -- -- 72
2020-03-17 02:00:00 6.2 5 Nordeste 13 Nordeste 0 -- -- 72
2020-03-17 01:00:00 6.5 5 Norte 12 Nordeste 0 -- -- 72
2020-03-17 00:00:00 6.5 5 Nordeste 14 Nordeste 0 -- -- 73
2020-03-16 23:00:00 6.2 2 Norte 7 Norte 0 -- -- 76
2020-03-16 22:00:00 5.9 0 Calma 5 Nordeste 0 -- -- 78
2020-03-16 21:00:00 6.6 0 Calma 4 Nordeste 0 -- -- 74
2020-03-16 20:00:00 7.7 0 Calma 13 Nordeste 0 -- -- 71
2020-03-16 19:00:00 9.2 4 Este 16 Nordeste 0 -- -- 68
2020-03-16 18:00:00 10.9 5 Este 18 Nordeste 0 -- -- 68
2020-03-16 17:00:00 11.1 4 Este 19 Este 0 -- -- 66
2020-03-16 16:00:00 12.3 5 Este 17 Nordeste 0 -- -- 66
2020-03-16 15:00:00 13.4 6 Norte 19 Norte 0 -- -- 40
2020-03-16 14:00:00 13.7 7 Norte 16 Norte 0 -- -- 43
2020-03-16 13:00:00 11.7 5 Norte 24 Noroeste 0.2 -- -- 58
2020-03-16 12:00:00 12 8 Noroeste 19 Noroeste 0 -- -- 58
2020-03-16 11:00:00 14.6 7 Sudoeste 17 Sudoeste 0 -- -- 72
2020-03-16 10:00:00 13.6 6 Sur 13 Sur 0 -- -- 81
2020-03-16 09:00:00 12.5 0 Calma 5 Nordeste 0 -- -- 90
2020-03-16 08:00:00 11.7 0 Calma 4 Oeste 0.2 -- -- 92
2020-03-16 07:00:00 11.5 0 Calma 5 Sur 0 -- -- 93
2020-03-16 06:00:00 11.6 0 Calma 4 Sudeste 0 -- -- 92
2020-03-16 05:00:00 12 0 Calma 0 Calma 0 -- -- 92
2020-03-16 04:00:00 12.2 0 Calma 3 Sudeste 0 -- -- 92
2020-03-16 03:00:00 12.5 0 Calma 3 Sudoeste 0 -- -- 94
2020-03-16 02:00:00 12.3 0 Calma 8 Sudoeste 0 -- -- 94
2020-03-16 01:00:00 12.5 3 Sur 12 Sudoeste 0 -- -- 91
2020-03-16 00:00:00 12.9 5 Sur 16 Sudeste 0.2 -- -- 90
2020-03-15 23:00:00 13.1 4 Sur 10 Sudeste 0 -- -- 84
2020-03-15 22:00:00 13.3 0 Calma 12 Nordeste 0 -- -- 82
2020-03-15 21:00:00 13.1 4 Norte 7 Norte 0 -- -- 80
2020-03-15 20:00:00 13.8 2 Sur 12 Sur 0 -- -- 77
2020-03-15 19:00:00 14.6 3 Sur 15 Sur 0 -- -- 74
2020-03-15 18:00:00 15.1 6 Sur 21 Sur 0 -- -- 71
2020-03-15 17:00:00 16.2 10 Sur 22 Sur 0 -- -- 66
2020-03-15 16:00:00 17.9 11 Sur 22 Sur 0 -- -- 62
2020-03-15 15:00:00 19.6 9 Nordeste 19 Nordeste 0 -- -- 53
2020-03-15 14:00:00 19.9 6 Nordeste 14 Este 0 -- -- 54
2020-03-15 13:00:00 19.3 3 Este 17 Nordeste 0 -- -- 56
2020-03-15 12:00:00 17.6 4 Nordeste 13 Nordeste 0 -- -- 62
2020-03-15 11:00:00 15.4 5 Nordeste 16 Nordeste 0 -- -- 71
2020-03-15 10:00:00 13.2 5 Nordeste 13 Nordeste 0 -- -- 78
2020-03-15 09:00:00 11.7 3 Nordeste 8 Nordeste 0 -- -- 87
2020-03-15 08:00:00 10 0 Calma 6 Norte 0 -- -- 91
2020-03-15 07:00:00 9.7 3 Norte 5 Norte 0 -- -- 93
2020-03-15 06:00:00 10 0 Calma 4 Noroeste 0 -- -- 92
2020-03-15 05:00:00 10.5 0 Calma 4 Nordeste 0 -- -- 91
2020-03-15 04:00:00 11 0 Calma 7 Nordeste 0 -- -- 91
2020-03-15 03:00:00 11.5 3 Nordeste 12 Nordeste 0 -- -- 90
2020-03-15 02:00:00 12.5 9 Nordeste 15 Nordeste 0 -- -- 90
2020-03-15 01:00:00 12.8 7 Nordeste 13 Nordeste 0 -- -- 91
2020-03-15 00:00:00 13.7 5 Nordeste 14 Nordeste 0 -- -- 89
2020-03-14 23:00:00 13.7 5 Nordeste 14 Nordeste 0 -- -- 88
2020-03-14 22:00:00 14.2 0 Calma 9 Sur 0 -- -- 86
2020-03-14 21:00:00 14.4 3 Sudoeste 9 Sudoeste 0 -- -- 86
2020-03-14 20:00:00 15.3 0 Calma 10 Sur 0 -- -- 80
2020-03-14 19:00:00 16.8 0 Calma 12 Sur 0 -- -- 72
2020-03-14 18:00:00 18.8 3 Sudeste 16 Sur 0 -- -- 64
2020-03-14 17:00:00 21.3 2 Este 16 Nordeste 0 -- -- 55
2020-03-14 16:00:00 20.5 6 Sur 19 Sudoeste 0 -- -- 60
2020-03-14 15:00:00 22.2 3 Sur 14 Sudeste 0 -- -- 56
2020-03-14 14:00:00 21 3 Sudeste 13 Sudeste 0 -- -- 58
2020-03-14 13:00:00 20.3 3 Sudeste 10 Este 0 -- -- 60
2020-03-14 12:00:00 18 0 Calma 13 Nordeste 0 -- -- 64
2020-03-14 11:00:00 15.9 5 Nordeste 15 Nordeste 0 -- -- 74
2020-03-14 10:00:00 13.8 4 Nordeste 11 Este 0 -- -- 81
2020-03-14 09:00:00 11.2 3 Norte 6 Norte 0 -- -- 83
2020-03-14 08:00:00 9.5 3 Norte 7 Nordeste 0 -- -- 86
2020-03-14 07:00:00 9.8 3 Norte 8 Norte 0 -- -- 84
2020-03-14 06:00:00 10.7 0 Calma 11 Noroeste 0 -- -- 83
2020-03-14 05:00:00 11.2 3 Noroeste 9 Nordeste 0 -- -- 82
2020-03-14 04:00:00 11.2 4 Norte 9 Norte 0 -- -- 80
2020-03-14 03:00:00 11.6 2 Norte 6 Noroeste 0 -- -- 80
2020-03-14 02:00:00 11.6 0 Calma 3 Nordeste 0 -- -- 80
2020-03-14 01:00:00 11.9 0 Calma 7 Nordeste 0 -- -- 79
2020-03-14 00:00:00 12.3 4 Nordeste 6 Nordeste 0 -- -- 79
2020-03-13 23:00:00 12.8 2 Nordeste 6 Nordeste 0 -- -- 77
2020-03-13 22:00:00 13.2 3 Nordeste 10 Nordeste 0 -- -- 75
2020-03-13 21:00:00 13.8 3 Nordeste 14 Nordeste 0 -- -- 71
2020-03-13 20:00:00 14.7 6 Nordeste 22 Nordeste 0 -- -- 65
2020-03-13 19:00:00 15.9 9 Nordeste 19 Nordeste 0 -- -- 59
2020-03-13 18:00:00 17.8 5 Nordeste 23 Nordeste 0 -- -- 54
2020-03-13 17:00:00 19.9 5 Nordeste 22 Nordeste 0 -- -- 52
2020-03-13 16:00:00 20.5 7 Nordeste 23 Nordeste 0 -- -- 51
2020-03-13 15:00:00 22.6 6 Nordeste 20 Nordeste 0 -- -- 49
2020-03-13 14:00:00 21.9 6 Nordeste 26 Nordeste 0 -- -- 50
2020-03-13 13:00:00 22.6 6 Este 18 Nordeste 0 -- -- 49
2020-03-13 12:00:00 22.1 5 Este 15 Nordeste 0 -- -- 50
2020-03-13 11:00:00 17.8 4 Nordeste 9 Nordeste 0 -- -- 59
2020-03-13 10:00:00 14.2 0 Calma 12 Noroeste 0 -- -- 68
2020-03-13 09:00:00 14.3 5 Noroeste 12 Noroeste 0 -- -- 66
2020-03-13 08:00:00 11.3 0 Calma 6 Norte 0 -- -- 73
2020-03-13 07:00:00 11.2 0 Calma 9 Norte 0 -- -- 72
2020-03-13 06:00:00 11.7 6 Norte 11 Nordeste 0 -- -- 71
2020-03-13 05:00:00 11 4 Sudoeste 9 Norte 0 -- -- 74
2020-03-13 04:00:00 10.9 0 Calma 4 Sur 0 -- -- 74
2020-03-13 03:00:00 12.9 0 Calma 9 Noroeste 0 -- -- 66
2020-03-13 02:00:00 12.2 2 Noroeste 4 Oeste 0 -- -- 70
2020-03-13 01:00:00 13.2 4 Noroeste 7 Noroeste 0 -- -- 66
2020-03-13 00:00:00 13 0 Calma 4 Sur 0 -- -- 67
2020-03-12 23:00:00 14.4 0 Calma 4 Norte 0 -- -- 62
2020-03-12 22:00:00 15.4 0 Calma 4 Nordeste 0 -- -- 60
2020-03-12 21:00:00 16.7 0 Calma 4 Este 0 -- -- 55
2020-03-12 20:00:00 19.6 2 Sudoeste 8 Oeste 0 -- -- 45
2020-03-12 19:00:00 22.4 2 Oeste 11 Sudoeste 0 -- -- 39
2020-03-12 18:00:00 24.4 5 Sur 15 Sur 0 -- -- 35
2020-03-12 17:00:00 25.9 7 Sur 15 Sudoeste 0 -- -- 34
2020-03-12 16:00:00 27.3 3 Sur 12 Sur 0 -- -- 33
2020-03-12 15:00:00 27.3 4 Sur 13 Sur 0 -- -- 34
2020-03-12 14:00:00 27.1 5 Sur 13 Sudoeste 0 -- -- 35
2020-03-12 13:00:00 25.8 7 Sur 16 Sur 0 -- -- 36
2020-03-12 12:00:00 24 3 Sudoeste 7 Sudoeste 0 -- -- 40
2020-03-12 11:00:00 21.2 3 Noroeste 7 Noroeste 0 -- -- 44
2020-03-12 10:00:00 15.6 0 Calma 5 Sur 0 -- -- 65
2020-03-12 09:00:00 12.6 0 Calma 5 Sudoeste 0 -- -- 75
2020-03-12 08:00:00 9.4 3 Oeste 9 Norte 0 -- -- 80
2020-03-12 07:00:00 8.9 0 Calma 4 Noroeste 0 -- -- 83
2020-03-12 06:00:00 9.2 0 Calma 3 Noroeste 0 -- -- 83
2020-03-12 05:00:00 9.7 2 Noroeste 5 Noroeste 0 -- -- 82
2020-03-12 04:00:00 10.2 0 Calma 4 Sudoeste 0 -- -- 81
2020-03-12 03:00:00 10.5 0 Calma 4 Oeste 0 -- -- 79
2020-03-12 02:00:00 11.6 2 Oeste 4 Oeste 0 -- -- 74
2020-03-12 01:00:00 11.9 2 Nordeste 4 Nordeste 0 -- -- 76
2020-03-12 00:00:00 13 0 Calma 4 Oeste 0 -- -- 72
2020-03-11 23:00:00 13.8 0 Calma 5 Este 0 -- -- 68
2020-03-11 22:00:00 15.1 0 Calma 4 Sudeste 0 -- -- 65
2020-03-11 21:00:00 17 0 Calma 4 Oeste 0 -- -- 57
2020-03-11 20:00:00 19.7 2 Sudoeste 9 Sudoeste 0 -- -- 48
2020-03-11 19:00:00 22.1 6 Sudoeste 14 Sudoeste 0 -- -- 42
2020-03-11 18:00:00 25.1 6 Sur 19 Sudoeste 0 -- -- 39
2020-03-11 17:00:00 26.9 10 Sur 20 Sur 0 -- -- 34
2020-03-11 16:00:00 27.5 9 Sur 21 Sudoeste 0 -- -- 33
2020-03-11 15:00:00 29 9 Sudoeste 19 Sur 0 -- -- 33
2020-03-11 14:00:00 28.6 4 Sur 11 Sur 0 -- -- 33
2020-03-11 13:00:00 27.4 4 Sur 10 Sudeste 0 -- -- 34
2020-03-11 12:00:00 25.1 2 Sudoeste 6 Oeste 0 -- -- 42
2020-03-11 11:00:00 21.6 2 Sudoeste 6 Sudoeste 0 -- -- 52
2020-03-11 10:00:00 15.8 0 Calma 6 Sur 0 -- -- 67
2020-03-11 09:00:00 11.5 0 Calma 5 Sudoeste 0 -- -- 81
2020-03-11 08:00:00 9.1 0 Calma 5 Noroeste 0 -- -- 85
2020-03-11 07:00:00 8.8 0 Calma 6 Oeste 0 -- -- 86
2020-03-11 06:00:00 9.4 4 Oeste 13 Noroeste 0 -- -- 84
2020-03-11 05:00:00 9 0 Calma 5 Sudoeste 0 -- -- 85
2020-03-11 04:00:00 9.4 0 Calma 5 Sudoeste 0 -- -- 83
2020-03-11 03:00:00 10.3 3 Oeste 10 Norte 0 -- -- 78
2020-03-11 02:00:00 10.4 0 Calma 4 Norte 0 -- -- 79
2020-03-11 01:00:00 10 0 Calma 4 Sudoeste 0 -- -- 77
2020-03-11 00:00:00 10.6 0 Calma 6 Nordeste 0 -- -- 75
2020-03-10 23:00:00 11.3 0 Calma 3 Oeste 0 -- -- 72
2020-03-10 22:00:00 12.1 0 Calma 6 Oeste 0 -- -- 68
2020-03-10 21:00:00 12.8 2 Sudoeste 11 Oeste 0 -- -- 70
2020-03-10 20:00:00 13.6 5 Sudoeste 17 Sudoeste 0 -- -- 65
2020-03-10 19:00:00 15.1 8 Sudoeste 23 Sur 0 -- -- 58
2020-03-10 18:00:00 17.4 9 Sur 23 Sur 0 -- -- 54
2020-03-10 17:00:00 18.5 11 Sur 23 Sur 0 -- -- 52
2020-03-10 16:00:00 18.9 11 Sur 28 Sur 0 -- -- 54
2020-03-10 15:00:00 19.7 12 Sur 25 Sur 0 -- -- 52
2020-03-10 14:00:00 23.2 3 Este 12 Nordeste 0 -- -- 39
2020-03-10 13:00:00 22.1 3 Este 14 Nordeste 0 -- -- 40
2020-03-10 12:00:00 21.1 4 Este 13 Nordeste 0 -- -- 43
2020-03-10 11:00:00 19.7 4 Nordeste 22 Nordeste 0 -- -- 45
2020-03-10 10:00:00 17.4 8 Norte 18 Nordeste 0 -- -- 46
2020-03-10 09:00:00 14.4 7 Noroeste 13 Noroeste 0 -- -- 49
2020-03-10 08:00:00 12.2 2 Norte 11 Noroeste 0 -- -- 53
2020-03-10 07:00:00 13 5 Norte 15 Norte 0 -- -- 49
2020-03-10 06:00:00 14.3 9 Nordeste 16 Norte 0 -- -- 47
2020-03-10 05:00:00 13.2 6 Norte 16 Noroeste 0 -- -- 48
2020-03-10 04:00:00 13.4 0 Calma 11 Nordeste 0 -- -- 47
2020-03-10 03:00:00 14.6 3 Norte 15 Oeste 0 -- -- 44
2020-03-10 02:00:00 15.3 0 Calma 25 Noroeste 0 -- -- 42
2020-03-10 01:00:00 16.4 8 Noroeste 25 Noroeste 0 -- -- 44
2020-03-10 00:00:00 11.3 0 Calma 5 Oeste 0 -- -- 63
2020-03-09 23:00:00 11.9 3 Oeste 7 Oeste 0 -- -- 62
2020-03-09 22:00:00 12.8 3 Oeste 9 Sudoeste 0 -- -- 59
2020-03-09 21:00:00 13.5 0 Calma 6 Sudoeste 0 -- -- 55
2020-03-09 20:00:00 15 3 Sudoeste 15 Sudoeste 0 -- -- 51
2020-03-09 19:00:00 16.7 6 Sudoeste 19 Sur 0 -- -- 47
2020-03-09 18:00:00 18.5 7 Sur 22 Sur 0 -- -- 45
2020-03-09 17:00:00 20.1 10 Sur 24 Sur 0 -- -- 45
2020-03-09 16:00:00 21.7 10 Sur 19 Sur 0 -- -- 42
2020-03-09 15:00:00 22.9 5 Este 21 Nordeste 0 -- -- 37
2020-03-09 14:00:00 22.5 0 Calma 10 Sur 0 -- -- 36
2020-03-09 13:00:00 20.8 3 Sur 14 Sudeste 0 -- -- 40
2020-03-09 12:00:00 19.3 3 Sur 11 Sur 0 -- -- 46
2020-03-09 11:00:00 17.5 4 Sudoeste 9 Noroeste 0 -- -- 49
2020-03-09 10:00:00 15.3 3 Norte 9 Nordeste 0 -- -- 51
2020-03-09 09:00:00 13 4 Norte 9 Norte 0 -- -- 55
2020-03-09 08:00:00 11.1 0 Calma 13 Noroeste 0 -- -- 56
2020-03-09 07:00:00 10.4 3 Nordeste 12 Noroeste 0 -- -- 54
2020-03-09 06:00:00 14 4 Noroeste 19 Noroeste 0 -- -- 46
2020-03-09 05:00:00 14.3 13 Noroeste 24 Noroeste 0 -- -- 43
2020-03-09 04:00:00 13.8 7 Noroeste 18 Noroeste 0 -- -- 46
2020-03-09 03:00:00 12.5 4 Norte 8 Nordeste 0 -- -- 50
2020-03-09 02:00:00 11 0 Calma 10 Nordeste 0 -- -- 60
2020-03-09 01:00:00 13.7 2 Norte 12 Norte 0 -- -- 51
2020-03-09 00:00:00 13.2 0 Calma 9 Sudoeste 0 -- -- 64
2020-03-08 23:00:00 13.8 4 Sur 12 Noroeste 0 -- -- 61
2020-03-08 22:00:00 13.3 3 Noroeste 10 Nordeste 0 -- -- 64
2020-03-08 21:00:00 14.3 4 Nordeste 10 Norte 0 -- -- 58
2020-03-08 20:00:00 14.8 2 Noroeste 4 Noroeste 0 -- -- 54
2020-03-08 19:00:00 17.8 0 Calma 10 Sudoeste 0 -- -- 47
2020-03-08 18:00:00 19.2 6 Sur 18 Sudoeste 0 -- -- 44
2020-03-08 17:00:00 19.8 9 Sur 21 Sur 0 -- -- 45
2020-03-08 16:00:00 20.5 9 Sur 23 Sur 0 -- -- 42
2020-03-08 15:00:00 21.1 11 Sur 23 Sur 0 -- -- 40
2020-03-08 14:00:00 21 7 Sur 20 Sur 0 -- -- 37
2020-03-08 13:00:00 20.4 5 Sur 14 Sur 0 -- -- 40
2020-03-08 12:00:00 18.5 6 Sur 13 Sur 0 -- -- 42
2020-03-08 11:00:00 14.9 2 Sudoeste 8 Sudoeste 0 -- -- 52
2020-03-08 10:00:00 12.6 4 Noroeste 11 Noroeste 0 -- -- 57
2020-03-08 09:00:00 8.6 6 Sudoeste 17 Norte 0 -- -- 67
2020-03-08 08:00:00 8 5 Norte 15 Noroeste 0 -- -- 66
2020-03-08 07:00:00 7.6 2 Noroeste 15 Norte 0 -- -- 68
2020-03-08 06:00:00 8.3 3 Norte 8 Norte 0 -- -- 67
2020-03-08 05:00:00 9.2 3 Norte 13 Nordeste 0 -- -- 62
2020-03-08 04:00:00 10.6 4 Norte 16 Noroeste 0 -- -- 59
2020-03-08 03:00:00 10.6 3 Oeste 14 Noroeste 0 -- -- 61
2020-03-08 02:00:00 7.4 0 Calma 7 Sudoeste 0 -- -- 81
2020-03-08 01:00:00 8.2 0 Calma 6 Noroeste 0 -- -- 79
2020-03-08 00:00:00 8.7 0 Calma 6 Sudeste 0 -- -- 80
2020-03-07 23:00:00 9.3 0 Calma 5 Sur 0 -- -- 79
2020-03-07 22:00:00 10.9 2 Noroeste 7 Sur 0 -- -- 77
2020-03-07 21:00:00 11.9 4 Sur 13 Sur 0 -- -- 72
2020-03-07 20:00:00 12.5 5 Sudoeste 12 Sudoeste 0 -- -- 68
2020-03-07 19:00:00 13.8 5 Sudoeste 17 Sudoeste 0 -- -- 61
2020-03-07 18:00:00 16 8 Sur 22 Sur 0 -- -- 45
2020-03-07 17:00:00 20.1 4 Norte 15 Nordeste 0 -- -- 35
2020-03-07 16:00:00 19.7 7 Nordeste 23 Noroeste 0 -- -- 35
2020-03-07 15:00:00 19.4 9 Norte 27 Noroeste 0 -- -- 35
2020-03-07 14:00:00 18.9 8 Norte 28 Noroeste 0 -- -- 36
2020-03-07 13:00:00 17.9 8 Norte 27 Noroeste 0 -- -- 37
2020-03-07 12:00:00 16.9 11 Norte 32 Nordeste 0 -- -- 39
2020-03-07 11:00:00 15.3 10 Norte 37 Norte 0 -- -- 40
2020-03-07 10:00:00 12.7 9 Norte 26 Noroeste 0 -- -- 42
2020-03-07 09:00:00 10.3 7 Noroeste 16 Noroeste 0 -- -- 46
2020-03-07 08:00:00 8.6 12 Noroeste 21 Noroeste 0 -- -- 50
2020-03-07 07:00:00 7.7 2 Norte 21 Norte 0 -- -- 53
2020-03-07 06:00:00 7.4 4 Norte 11 Noroeste 0 -- -- 53
2020-03-07 05:00:00 7.3 5 Norte 10 Norte 0 -- -- 52
2020-03-07 04:00:00 7.5 6 Norte 10 Norte 0 -- -- 52
2020-03-07 03:00:00 7.5 5 Norte 10 Norte 0 -- -- 51
2020-03-07 02:00:00 7.3 3 Norte 7 Norte 0 -- -- 53
2020-03-07 01:00:00 7 2 Nordeste 5 Nordeste 0 -- -- 53
2020-03-07 00:00:00 8.6 0 Calma 8 Norte 0 -- -- 48
2020-03-06 23:00:00 11.3 6 Noroeste 15 Norte 0 -- -- 43
2020-03-06 22:00:00 11.7 2 Noroeste 11 Noroeste 0 -- -- 42
2020-03-06 21:00:00 12.1 3 Nordeste 18 Noroeste 0 -- -- 42
2020-03-06 20:00:00 14 5 Noroeste 20 Noroeste 0 -- -- 39
2020-03-06 19:00:00 15.2 7 Noroeste 22 Noroeste 0 -- -- 38
2020-03-06 18:00:00 16.9 9 Norte 29 Noroeste 0 -- -- 38
2020-03-06 17:00:00 16.5 13 Noroeste 35 Noroeste 0 -- -- 39
2020-03-06 16:00:00 17.7 13 Noroeste 37 Norte 0 -- -- 37
2020-03-06 15:00:00 17.8 18 Noroeste 46 Noroeste 0 -- -- 37
2020-03-06 14:00:00 18.1 18 Noroeste 40 Noroeste 0 -- -- 36
2020-03-06 13:00:00 17.4 15 Noroeste 34 Noroeste 0 -- -- 40
2020-03-06 12:00:00 16.6 10 Noroeste 38 Noroeste 0 -- -- 43
2020-03-06 11:00:00 15.7 7 Oeste 30 Noroeste 0 -- -- 45
2020-03-06 10:00:00 13.3 6 Oeste 20 Noroeste 0 -- -- 48
2020-03-06 09:00:00 11.9 6 Oeste 17 Oeste 0 -- -- 49
2020-03-06 08:00:00 10.3 3 Oeste 15 Oeste 0 -- -- 53
2020-03-06 07:00:00 10.6 4 Oeste 21 Sudoeste 0 -- -- 52
2020-03-06 06:00:00 12 9 Sudoeste 20 Sudoeste 0 -- -- 49
2020-03-06 05:00:00 12.2 5 Oeste 21 Noroeste 0 -- -- 49
2020-03-06 04:00:00 13.1 5 Noroeste 34 Noroeste 0 -- -- 48
2020-03-06 03:00:00 13.9 15 Noroeste 28 Oeste 0 -- -- 48
2020-03-06 02:00:00 14.2 9 Oeste 23 Sudoeste 0 -- -- 46
2020-03-06 01:00:00 13.7 8 Norte 18 Norte 0 -- -- 47
2020-03-06 00:00:00 13.7 4 Norte 24 Oeste 0 -- -- 48
2020-03-05 23:00:00 14.7 3 Sudoeste 15 Oeste 0 -- -- 47
2020-03-05 22:00:00 14.9 5 Sur 23 Noroeste 0 -- -- 46
2020-03-05 21:00:00 16.4 13 Noroeste 25 Noroeste 0 -- -- 43
2020-03-05 20:00:00 17.2 3 Noroeste 33 Noroeste 0 -- -- 41
2020-03-05 19:00:00 18.5 7 Oeste 34 Noroeste 0 -- -- 45
2020-03-05 18:00:00 20.1 13 Noroeste 44 Oeste 0 -- -- 45
2020-03-05 17:00:00 20.7 15 Oeste 47 Oeste 0 -- -- 45
2020-03-05 16:00:00 22.8 14 Oeste 37 Noroeste 0 -- -- 41
2020-03-05 15:00:00 24.1 15 Oeste 33 Noroeste 0 -- -- 37
2020-03-05 14:00:00 24.1 10 Noroeste 32 Noroeste 0 -- -- 35
2020-03-05 13:00:00 22.5 3 Sudoeste 10 Sudoeste 0 -- -- 42
2020-03-05 12:00:00 19.3 3 Sudoeste 13 Sur 0 -- -- 50
2020-03-05 11:00:00 17 0 Calma 8 Oeste 0 -- -- 58
2020-03-05 10:00:00 12.7 3 Sudoeste 7 Oeste 0 -- -- 73
2020-03-05 09:00:00 9.3 3 Sudoeste 6 Sudoeste 0 -- -- 84
2020-03-05 08:00:00 7.2 2 Sur 5 Noroeste 0 -- -- 88
2020-03-05 07:00:00 6.9 0 Calma 6 Sudoeste 0 -- -- 87
2020-03-05 06:00:00 8.1 0 Calma 4 Norte 0 -- -- 85
2020-03-05 05:00:00 8.4 0 Calma 5 Oeste 0 -- -- 85
2020-03-05 04:00:00 8.7 0 Calma 6 Noroeste 0 -- -- 84
2020-03-05 03:00:00 9.4 0 Calma 3 Sudoeste 0 -- -- 82
2020-03-05 02:00:00 11.1 2 Oeste 6 Sudoeste 0 -- -- 78
2020-03-05 01:00:00 11.9 0 Calma 8 Noroeste 0 -- -- 76
2020-03-05 00:00:00 13 4 Noroeste 12 Norte 0 -- -- 70
2020-03-04 23:00:00 13.8 3 Norte 14 Noroeste 0 -- -- 68
2020-03-04 22:00:00 14.2 0 Calma 4 Norte 0 -- -- 72
2020-03-04 21:00:00 14.9 0 Calma 4 Este 0 -- -- 67
2020-03-04 20:00:00 17.1 2 Oeste 6 Sudoeste 0 -- -- 59
2020-03-04 19:00:00 19.7 0 Calma 11 Sur 0 -- -- 52
2020-03-04 18:00:00 22 5 Sur 16 Sudeste 0 -- -- 47
2020-03-04 17:00:00 23.4 6 Sur 17 Sudoeste 0 -- -- 45
2020-03-04 16:00:00 24.6 6 Sur 17 Sur 0 -- -- 43
2020-03-04 15:00:00 24.8 3 Sudeste 11 Sur 0 -- -- 43
2020-03-04 14:00:00 24.3 5 Sur 17 Sur 0 -- -- 45
2020-03-04 13:00:00 23.3 4 Sudeste 14 Sudoeste 0 -- -- 48
2020-03-04 12:00:00 21.7 4 Sur 9 Sudeste 0 -- -- 53
2020-03-04 11:00:00 19.6 0 Calma 12 Norte 0 -- -- 61
2020-03-04 10:00:00 15.4 4 Noroeste 10 Noroeste 0 -- -- 72
2020-03-04 09:00:00 12.5 5 Nordeste 9 Nordeste 0 -- -- 79
2020-03-04 08:00:00 11.5 3 Norte 6 Norte 0 -- -- 82
2020-03-04 07:00:00 11 3 Sur 8 Sur 0 -- -- 83
2020-03-04 06:00:00 11.9 0 Calma 9 Sudoeste 0 -- -- 79
2020-03-04 05:00:00 12.4 0 Calma 8 Noroeste 0 -- -- 75
2020-03-04 04:00:00 13.4 3 Sur 10 Oeste 0 -- -- 72
2020-03-04 03:00:00 14.4 4 Sudoeste 18 Sudoeste 0 -- -- 68
2020-03-04 02:00:00 14.4 4 Sur 12 Sudoeste 0 -- -- 67
2020-03-04 01:00:00 15.2 6 Sudoeste 19 Sudoeste 0 -- -- 61
2020-03-04 00:00:00 16.1 5 Sudoeste 23 Sudoeste 0 -- -- 59
2020-03-03 23:00:00 16.6 7 Oeste 23 Noroeste 0 -- -- 56
2020-03-03 22:00:00 16.7 8 Sudoeste 25 Sudoeste 0 -- -- 54
2020-03-03 21:00:00 16.9 4 Sudoeste 23 Oeste 0 -- -- 52
2020-03-03 20:00:00 17.4 2 Oeste 32 Noroeste 0 -- -- 49
2020-03-03 19:00:00 18.1 19 Noroeste 43 Noroeste 0 -- -- 46
2020-03-03 18:00:00 21.3 19 Noroeste 37 Noroeste 0 -- -- 39
2020-03-03 17:00:00 23.1 15 Noroeste 37 Noroeste 0 -- -- 37
2020-03-03 16:00:00 24 15 Noroeste 46 Noroeste 0 -- -- 37
2020-03-03 15:00:00 23.6 11 Noroeste 28 Noroeste 0 -- -- 37
2020-03-03 14:00:00 22.8 4 Oeste 23 Noroeste 0 -- -- 39
2020-03-03 13:00:00 20.8 2 Sudoeste 12 Sur 0 -- -- 39
2020-03-03 12:00:00 18.2 6 Sur 15 Sudeste 0 -- -- 41
2020-03-03 11:00:00 15.1 0 Calma 8 Nordeste 0 -- -- 53
2020-03-03 10:00:00 11.7 3 Oeste 6 Noroeste 0 -- -- 61
2020-03-03 09:00:00 7.5 0 Calma 5 Norte 0 -- -- 71
2020-03-03 08:00:00 5.8 0 Calma 6 Sur 0 -- -- 74
2020-03-03 07:00:00 5.8 2 Sudeste 4 Sudeste 0 -- -- 72
2020-03-03 06:00:00 6.3 0 Calma 5 Sur 0 -- -- 68
2020-03-03 05:00:00 8.8 2 Sudoeste 8 Sudoeste 0 -- -- 58
2020-03-03 04:00:00 11.4 4 Noroeste 15 Oeste 0 -- -- 48
2020-03-03 03:00:00 11.5 0 Calma 28 Noroeste 0 -- -- 50
2020-03-03 02:00:00 12.8 3 Noroeste 21 Noroeste 0 -- -- 49
2020-03-03 01:00:00 13.3 3 Oeste 15 Sudoeste 0 -- -- 46
2020-03-03 00:00:00 13.4 6 Noroeste 28 Oeste 0 -- -- 43
2020-03-02 23:00:00 14.5 11 Noroeste 24 Oeste 0 -- -- 42
2020-03-02 22:00:00 14 7 Norte 29 Noroeste 0 -- -- 45
2020-03-02 21:00:00 15.9 12 Noroeste 35 Oeste 0 -- -- 40
2020-03-02 20:00:00 16.8 12 Noroeste 42 Noroeste 0 -- -- 37
2020-03-02 19:00:00 17.7 13 Oeste 44 Sudoeste 0 -- -- 39
2020-03-02 18:00:00 19.4 17 Oeste 52 Sudoeste 0 -- -- 35
2020-03-02 17:00:00 21.1 21 Oeste 49 Noroeste 0 -- -- 33
2020-03-02 16:00:00 22.2 16 Oeste 50 Noroeste 0 -- -- 34
2020-03-02 15:00:00 22.2 21 Noroeste 52 Noroeste 0 -- -- 36
2020-03-02 14:00:00 22.3 17 Oeste 58 Noroeste 0 -- -- 40
2020-03-02 13:00:00 21.4 24 Noroeste 62 Noroeste 0.2 -- -- 43
2020-03-02 12:00:00 21.4 19 Oeste 61 Noroeste 0.1 -- -- 45
2020-03-02 11:00:00 20.2 21 Oeste 49 Sudoeste 1.1 -- -- 48
2020-03-02 10:00:00 18.2 14 Oeste 41 Noroeste 0 -- -- 50
2020-03-02 09:00:00 17.4 14 Oeste 46 Oeste 0 -- -- 50
2020-03-02 08:00:00 16.7 18 Oeste 49 Oeste 0 -- -- 52
2020-03-02 07:00:00 17 14 Oeste 46 Oeste 0 -- -- 52
2020-03-02 06:00:00 16.4 15 Sudoeste 35 Sudoeste 0 -- -- 54
2020-03-02 05:00:00 16.3 10 Oeste 34 Sudoeste 0 -- -- 56
2020-03-02 04:00:00 16.8 12 Sudoeste 33 Sudoeste 0 -- -- 58
2020-03-02 03:00:00 17 18 Sudoeste 37 Oeste 0 -- -- 56
2020-03-02 02:00:00 17.4 12 Oeste 34 Oeste 0 -- -- 54
2020-03-02 01:00:00 16.5 7 Sudoeste 27 Oeste 0 -- -- 55
2020-03-02 00:00:00 16.8 8 Oeste 23 Noroeste 0 -- -- 54
2020-03-01 23:00:00 14.9 6 Sudoeste 14 Sudoeste 0 -- -- 59
2020-03-01 22:00:00 15.6 5 Sudoeste 21 Sudoeste 0 -- -- 55
2020-03-01 21:00:00 15.4 2 Oeste 11 Sudoeste 0 -- -- 54
2020-03-01 20:00:00 16.1 6 Sudoeste 21 Oeste 0 -- -- 53
2020-03-01 19:00:00 18.2 8 Oeste 22 Oeste 0 -- -- 47
2020-03-01 18:00:00 19.5 9 Oeste 23 Oeste 0 -- -- 44
2020-03-01 17:00:00 21.2 5 Noroeste 22 Sudoeste 0 -- -- 43
2020-03-01 16:00:00 19.6 10 Sudoeste 21 Sudoeste 0 -- -- 48
2020-03-01 15:00:00 19.9 5 Noroeste 18 Norte 0 -- -- 46
2020-03-01 14:00:00 19.1 8 Oeste 17 Oeste 0 -- -- 48
2020-03-01 13:00:00 18.6 5 Sudoeste 21 Sudoeste 0 -- -- 49
2020-03-01 12:00:00 17.9 9 Sudoeste 18 Oeste 0 -- -- 53
2020-03-01 11:00:00 16.8 8 Sudoeste 17 Sudoeste 0 -- -- 54
2020-03-01 10:00:00 15.8 5 Sur 15 Sudoeste 0 -- -- 58
2020-03-01 09:00:00 14.5 5 Sur 13 Sur 0 -- -- 61
2020-03-01 08:00:00 13.7 2 Sur 20 Oeste 0 -- -- 59
2020-03-01 07:00:00 15.9 6 Oeste 27 Oeste 0 -- -- 54
2020-03-01 06:00:00 15.8 5 Oeste 22 Oeste 0 -- -- 56
2020-03-01 05:00:00 16.6 8 Noroeste 26 Noroeste 0 -- -- 58
2020-03-01 04:00:00 15.6 4 Sudoeste 15 Sudoeste 0 -- -- 62
2020-03-01 03:00:00 15.5 3 Sur 16 Oeste 0 -- -- 62
2020-03-01 02:00:00 16.3 0 Calma 12 Oeste 0 -- -- 59
2020-03-01 01:00:00 16.8 5 Sudoeste 22 Noroeste 0 -- -- 55
2020-03-01 00:00:00 17.5 6 Sudoeste 35 Noroeste 0 -- -- 53
2020-02-29 23:00:00 18.4 13 Oeste 31 Noroeste 0 -- -- 50
2020-02-29 22:00:00 18.5 6 Oeste 19 Noroeste 0 -- -- 47
2020-02-29 21:00:00 17.9 2 Oeste 13 Oeste 0 -- -- 43
2020-02-29 20:00:00 19 5 Sudoeste 16 Oeste 0 -- -- 39
2020-02-29 19:00:00 20.8 4 Oeste 21 Noroeste 0 -- -- 34
2020-02-29 18:00:00 22.7 12 Noroeste 28 Noroeste 0 -- -- 28
2020-02-29 17:00:00 24.5 11 Oeste 27 Noroeste 0 -- -- 26
2020-02-29 16:00:00 25.6 5 Oeste 19 Noroeste 0 -- -- 25
2020-02-29 15:00:00 25 6 Oeste 18 Norte 0 -- -- 26
2020-02-29 14:00:00 23.8 4 Sudeste 9 Nordeste 0 -- -- 28
2020-02-29 13:00:00 21.9 0 Calma 12 Sudeste 0 -- -- 33
2020-02-29 12:00:00 20.2 0 Calma 8 Sur 0 -- -- 37
2020-02-29 11:00:00 15.1 0 Calma 6 Sur 0 -- -- 55
2020-02-29 10:00:00 11.3 0 Calma 7 Sudoeste 0 -- -- 71
2020-02-29 09:00:00 7.8 0 Calma 5 Noroeste 0 -- -- 80
2020-02-29 08:00:00 5.5 3 Oeste 7 Noroeste 0 -- -- 85
2020-02-29 07:00:00 5.6 0 Calma 8 Norte 0 -- -- 83
2020-02-29 06:00:00 6.4 4 Noroeste 10 Noroeste 0 -- -- 80
2020-02-29 05:00:00 5.8 0 Calma 4 Norte 0 -- -- 83
2020-02-29 04:00:00 6.2 0 Calma 3 Nordeste 0 -- -- 83
2020-02-29 03:00:00 6.9 0 Calma 3 Sudoeste 0 -- -- 81
2020-02-29 02:00:00 7.7 0 Calma 2 Sur 0 -- -- 78
2020-02-29 01:00:00 8.5 2 Sudeste 4 Sudeste 0 -- -- 74
2020-02-29 00:00:00 9.1 0 Calma 2 Norte 0 -- -- 71
2020-02-28 23:00:00 9.9 0 Calma 4 Oeste 0 -- -- 67
2020-02-28 22:00:00 10.9 0 Calma 3 Oeste 0 -- -- 64
2020-02-28 21:00:00 12.1 0 Calma 8 Sudoeste 0 -- -- 58
2020-02-28 20:00:00 14.5 4 Sudoeste 13 Sudoeste 0 -- -- 48
2020-02-28 19:00:00 15.9 5 Sudoeste 12 Sudoeste 0 -- -- 45
2020-02-28 18:00:00 19 5 Sur 16 Sudoeste 0 -- -- 39
2020-02-28 17:00:00 21.2 6 Sur 18 Sur 0 -- -- 34
2020-02-28 16:00:00 21.8 7 Sur 19 Sur 0 -- -- 33
2020-02-28 15:00:00 22.4 8 Sur 20 Sur 0 -- -- 31
2020-02-28 14:00:00 22.6 8 Sur 17 Sudoeste 0 -- -- 33
2020-02-28 13:00:00 21.5 4 Sur 11 Sur 0 -- -- 36
2020-02-28 12:00:00 20.3 0 Calma 6 Sudoeste 0 -- -- 42
2020-02-28 11:00:00 16 2 Sudoeste 4 Sur 0 -- -- 52
2020-02-28 10:00:00 12.3 2 Sudoeste 5 Oeste 0 -- -- 59
2020-02-28 09:00:00 9 3 Sudoeste 5 Sudoeste 0 -- -- 66
2020-02-28 08:00:00 7.1 0 Calma 6 Noroeste 0 -- -- 70
2020-02-28 07:00:00 7.2 0 Calma 10 Sudeste 0 -- -- 67
2020-02-28 06:00:00 8.7 2 Sudeste 10 Noroeste 0 -- -- 62
2020-02-28 05:00:00 9.5 3 Sudoeste 12 Sur 0 -- -- 59
2020-02-28 04:00:00 10.1 0 Calma 9 Sudoeste 0 -- -- 56
2020-02-28 03:00:00 12.9 5 Oeste 20 Noroeste 0 -- -- 49
2020-02-28 02:00:00 11.3 3 Sudoeste 9 Noroeste 0 -- -- 59
2020-02-28 01:00:00 11.3 3 Sur 18 Noroeste 0 -- -- 59
2020-02-28 00:00:00 12.4 6 Norte 14 Norte 0 -- -- 54